Time;durP1;ratioP1;P1;durP2;ratioP2;P2;SDS_P1;SDS_P2;PMS_P1;PMS_P2;Temp;Humidity;BMP_temperature;BMP_pressure;BME280_temperature;BME280_humidity;BME280_pressure;Samples;Min_cycle;Max_cycle;Signal;HPM_P1;HPM_P2
2022/04/14 00:02:13;;;;;;;20.63;13.50;;;;;;;;;;5029526;28;20199;-64
2022/04/14 00:04:40;;;;;;;22.80;12.93;;;;;;;;;;5037822;28;20206;-62
2022/04/14 00:07:07;;;;;;;25.87;14.20;;;;;;;;;;5029609;28;20594;-63
2022/04/14 00:09:35;;;;;;;23.33;13.47;;;;;;;;;;5030110;28;20214;-62
2022/04/14 00:12:02;;;;;;;23.00;13.60;;;;;;;;;;5029602;28;20194;-63
2022/04/14 00:14:29;;;;;;;23.60;13.70;;;;;;;;;;5028444;28;20880;-62
2022/04/14 00:16:55;;;;;;;21.30;12.47;;;;;;;;;;5029524;28;20547;-63
2022/04/14 00:19:22;;;;;;;22.63;13.20;;;;;;;;;;5030155;28;20196;-63
2022/04/14 00:21:49;;;;;;;20.23;11.77;;;;;;;;;;5029236;28;20198;-63
2022/04/14 00:24:15;;;;;;;21.73;12.90;;;;;;;;;;5028812;28;20199;-63
2022/04/14 00:26:44;;;;;;;24.17;13.60;;;;;;;;;;5029361;28;20187;-63
2022/04/14 00:29:14;;;;;;;22.03;12.43;;;;;;;;;;5029644;28;20223;-62
2022/04/14 00:31:40;;;;;;;21.33;12.57;;;;;;;;;;5029643;28;20202;-62
2022/04/14 00:34:07;;;;;;;20.83;12.87;;;;;;;;;;5029216;28;20199;-63
2022/04/14 00:36:34;;;;;;;20.23;12.60;;;;;;;;;;5029125;28;20226;-62
2022/04/14 00:39:18;;;;;;;20.73;11.60;;;;;;;;;;5032319;28;20179;-63
2022/04/14 00:41:45;;;;;;;21.87;12.57;;;;;;;;;;5049076;28;20197;-62
2022/04/14 00:44:28;;;;;;;20.43;12.83;;;;;;;;;;5048680;28;20259;-63
2022/04/14 00:46:55;;;;;;;21.60;12.67;;;;;;;;;;5037717;28;20195;-63
2022/04/14 00:49:22;;;;;;;20.60;12.00;;;;;;;;;;5029507;28;20234;-62
2022/04/14 00:51:49;;;;;;;21.40;11.80;;;;;;;;;;5028765;28;20250;-63
2022/04/14 00:54:15;;;;;;;19.47;11.67;;;;;;;;;;5029175;28;20555;-63
2022/04/14 00:56:42;;;;;;;20.50;11.23;;;;;;;;;;5028835;28;20195;-62
2022/04/14 00:59:09;;;;;;;24.63;11.67;;;;;;;;;;5028671;28;20235;-63
2022/04/14 01:01:35;;;;;;;20.80;11.50;;;;;;;;;;5028889;28;20187;-63
2022/04/14 01:04:19;;;;;;;15.40;9.90;;;;;;;;;;5029427;28;20940;-63
2022/04/14 01:06:46;;;;;;;18.63;10.90;;;;;;;;;;5028422;28;20730;-62
2022/04/14 01:09:30;;;;;;;19.50;10.03;;;;;;;;;;5028739;28;20167;-62
2022/04/14 01:11:57;;;;;;;19.67;10.87;;;;;;;;;;5028648;28;20176;-63
2022/04/14 01:14:26;;;;;;;19.40;9.80;;;;;;;;;;5028290;28;20231;-63
2022/04/14 01:16:53;;;;;;;17.73;9.90;;;;;;;;;;5028777;28;20605;-62
2022/04/14 01:19:20;;;;;;;15.57;9.23;;;;;;;;;;5028995;28;20560;-63
2022/04/14 01:21:57;;;;;;;15.47;9.40;;;;;;;;;;5027807;28;20212;-63
2022/04/14 01:24:23;;;;;;;14.00;8.63;;;;;;;;;;5026920;28;20248;-63
2022/04/14 01:26:50;;;;;;;16.57;9.13;;;;;;;;;;5027871;28;20219;-63
2022/04/14 01:29:24;;;;;;;14.30;8.87;;;;;;;;;;5028529;28;20179;-63
2022/04/14 01:31:51;;;;;;;17.07;10.03;;;;;;;;;;5028315;28;20283;-63
2022/04/14 01:34:17;;;;;;;15.93;9.00;;;;;;;;;;5028848;28;20187;-62
2022/04/14 01:36:44;;;;;;;17.27;9.07;;;;;;;;;;5027475;28;20195;-65
2022/04/14 01:39:28;;;;;;;14.97;8.63;;;;;;;;;;5031322;28;20597;-62
2022/04/14 01:41:56;;;;;;;18.53;8.77;;;;;;;;;;5048250;28;20187;-62
2022/04/14 01:44:23;;;;;;;13.33;8.57;;;;;;;;;;5048055;28;20310;-63
2022/04/14 01:46:49;;;;;;;13.00;8.17;;;;;;;;;;5046495;28;20186;-63
2022/04/14 01:49:16;;;;;;;15.67;8.50;;;;;;;;;;5031445;28;20191;-63
2022/04/14 01:51:43;;;;;;;16.20;8.33;;;;;;;;;;5027640;28;20195;-63
2022/04/14 01:54:10;;;;;;;15.20;8.13;;;;;;;;;;5028178;28;20603;-63
2022/04/14 01:56:36;;;;;;;15.80;7.73;;;;;;;;;;5027972;28;20195;-62
2022/04/14 01:59:03;;;;;;;16.53;8.67;;;;;;;;;;5027698;28;20250;-63
2022/04/14 02:01:30;;;;;;;17.33;8.37;;;;;;;;;;5028330;28;20570;-62
2022/04/14 02:03:58;;;;;;;13.27;8.00;;;;;;;;;;5028033;28;20246;-63
2022/04/14 02:06:25;;;;;;;12.93;7.63;;;;;;;;;;5027821;28;20188;-63
2022/04/14 02:08:51;;;;;;;14.40;8.03;;;;;;;;;;5028037;28;20237;-63
2022/04/14 02:11:18;;;;;;;15.33;8.67;;;;;;;;;;5027140;28;20187;-63
2022/04/14 02:13:45;;;;;;;13.37;8.20;;;;;;;;;;5027616;28;20246;-63
2022/04/14 02:16:11;;;;;;;12.57;7.50;;;;;;;;;;5028311;28;20243;-62
2022/04/14 02:18:38;;;;;;;13.67;8.00;;;;;;;;;;5027563;28;20219;-62
2022/04/14 02:21:05;;;;;;;12.20;7.90;;;;;;;;;;5026491;28;20187;-62
2022/04/14 02:23:32;;;;;;;13.87;8.67;;;;;;;;;;5027844;28;20195;-62
2022/04/14 02:25:58;;;;;;;12.27;8.00;;;;;;;;;;5027843;28;20203;-62
2022/04/14 02:28:43;;;;;;;12.80;7.93;;;;;;;;;;5027371;28;20187;-62
2022/04/14 02:31:09;;;;;;;14.83;8.40;;;;;;;;;;5026622;28;20198;-63
2022/04/14 02:33:36;;;;;;;13.13;8.03;;;;;;;;;;5028085;28;20535;-63
2022/04/14 02:36:03;;;;;;;14.50;8.60;;;;;;;;;;5027545;28;20192;-63
2022/04/14 02:38:30;;;;;;;15.10;7.87;;;;;;;;;;5027384;28;20211;-63
2022/04/14 02:40:56;;;;;;;15.67;7.20;;;;;;;;;;5043923;28;20197;-63
2022/04/14 02:43:23;;;;;;;14.77;7.80;;;;;;;;;;5047548;28;20635;-63
2022/04/14 02:45:50;;;;;;;11.60;7.67;;;;;;;;;;5047315;28;20189;-63
2022/04/14 02:48:34;;;;;;;14.13;8.40;;;;;;;;;;5047630;28;20167;-63
2022/04/14 02:51:01;;;;;;;15.50;8.33;;;;;;;;;;5047265;28;20183;-63
2022/04/14 02:53:45;;;;;;;14.07;8.50;;;;;;;;;;5026533;28;20198;-64
2022/04/14 02:56:11;;;;;;;16.47;8.27;;;;;;;;;;5031356;28;20198;-63
2022/04/14 02:58:38;;;;;;;14.70;8.17;;;;;;;;;;5029705;28;20207;-64
2022/04/14 03:01:05;;;;;;;15.87;8.50;;;;;;;;;;5027558;28;20196;-63
2022/04/14 03:03:32;;;;;;;15.50;8.57;;;;;;;;;;5027445;28;20265;-63
2022/04/14 03:05:59;;;;;;;17.30;8.63;;;;;;;;;;5027288;28;20679;-63
2022/04/14 03:08:25;;;;;;;15.93;9.03;;;;;;;;;;5028199;28;20199;-64
2022/04/14 03:10:54;;;;;;;17.20;8.97;;;;;;;;;;5031010;28;20183;-63
2022/04/14 03:13:20;;;;;;;16.40;9.07;;;;;;;;;;5030989;28;20191;-63
2022/04/14 03:15:49;;;;;;;17.17;9.13;;;;;;;;;;5046692;28;20215;-64
2022/04/14 03:18:16;;;;;;;17.97;9.50;;;;;;;;;;5050809;28;20226;-63
2022/04/14 03:21:01;;;;;;;14.37;8.90;;;;;;;;;;5050366;28;20175;-63
2022/04/14 03:23:28;;;;;;;17.97;9.70;;;;;;;;;;5050372;28;20657;-63
2022/04/14 03:26:12;;;;;;;15.37;9.50;;;;;;;;;;5050761;28;20186;-63
2022/04/14 03:28:39;;;;;;;15.97;9.87;;;;;;;;;;5050831;28;20205;-63
2022/04/14 03:31:05;;;;;;;17.57;9.70;;;;;;;;;;5035734;28;20929;-63
2022/04/14 03:33:32;;;;;;;17.23;9.83;;;;;;;;;;5030614;28;20249;-63
2022/04/14 03:35:59;;;;;;;16.90;9.90;;;;;;;;;;5030329;28;20207;-63
2022/04/14 03:38:26;;;;;;;21.10;10.13;;;;;;;;;;5030252;28;20675;-63
2022/04/14 03:41:05;;;;;;;17.07;9.57;;;;;;;;;;5047242;28;20194;-63
2022/04/14 03:43:32;;;;;;;18.67;10.47;;;;;;;;;;5050562;28;20248;-63
2022/04/14 03:45:59;;;;;;;18.43;10.10;;;;;;;;;;5050344;28;20190;-63
2022/04/14 03:48:26;;;;;;;18.23;10.43;;;;;;;;;;5049994;28;20311;-63
2022/04/14 03:50:55;;;;;;;18.10;10.57;;;;;;;;;;5050209;28;20194;-63
2022/04/14 03:53:22;;;;;;;20.20;10.53;;;;;;;;;;5050004;28;20210;-63
2022/04/14 03:55:49;;;;;;;19.50;11.40;;;;;;;;;;5048949;28;20209;-63
2022/04/14 03:58:15;;;;;;;16.40;10.90;;;;;;;;;;5050368;28;20673;-63
2022/04/14 04:00:42;;;;;;;19.80;10.93;;;;;;;;;;5049848;28;20218;-63
2022/04/14 04:03:09;;;;;;;21.80;10.63;;;;;;;;;;5049950;28;20213;-63
2022/04/14 04:05:37;;;;;;;22.23;11.57;;;;;;;;;;5049720;28;20266;-64
2022/04/14 04:08:07;;;;;;;17.03;9.83;;;;;;;;;;5049630;28;20197;-63
2022/04/14 04:10:34;;;;;;;18.30;10.40;;;;;;;;;;5050027;28;20195;-63
2022/04/14 04:13:00;;;;;;;20.17;10.67;;;;;;;;;;5049656;28;20566;-63
2022/04/14 04:15:28;;;;;;;20.53;10.10;;;;;;;;;;5049780;28;20227;-63
2022/04/14 04:17:54;;;;;;;20.57;10.37;;;;;;;;;;5043516;28;20219;-63
2022/04/14 04:20:21;;;;;;;20.83;10.73;;;;;;;;;;5028515;28;20207;-61
2022/04/14 04:22:48;;;;;;;21.13;11.37;;;;;;;;;;5029411;28;20261;-60
2022/04/14 04:25:14;;;;;;;15.53;9.73;;;;;;;;;;5018112;28;20239;-60
2022/04/14 04:27:43;;;;;;;18.20;10.57;;;;;;;;;;5040923;28;20288;-59
2022/04/14 04:30:10;;;;;;;16.83;10.40;;;;;;;;;;5042464;28;20275;-59
2022/04/14 04:32:39;;;;;;;16.00;9.87;;;;;;;;;;5043053;28;20210;-60
2022/04/14 04:35:06;;;;;;;20.20;9.67;;;;;;;;;;5041493;28;20241;-61
2022/04/14 04:37:33;;;;;;;19.97;10.53;;;;;;;;;;5042002;28;20512;-60
2022/04/14 04:40:00;;;;;;;17.60;10.00;;;;;;;;;;5043045;28;20745;-60
2022/04/14 04:42:27;;;;;;;18.63;10.50;;;;;;;;;;5042239;28;20207;-60
2022/04/14 04:44:54;;;;;;;18.47;10.10;;;;;;;;;;5043443;28;20194;-60
2022/04/14 04:47:21;;;;;;;18.10;10.50;;;;;;;;;;5042416;28;20888;-59
2022/04/14 04:49:48;;;;;;;17.13;10.27;;;;;;;;;;5042111;28;20195;-60
2022/04/14 04:52:15;;;;;;;17.23;8.80;;;;;;;;;;5041214;28;20930;-63
2022/04/14 04:54:42;;;;;;;17.17;8.57;;;;;;;;;;5040811;28;20218;-62
2022/04/14 04:57:09;;;;;;;16.10;9.00;;;;;;;;;;5041373;28;20674;-62
2022/04/14 04:59:35;;;;;;;14.70;8.70;;;;;;;;;;5041772;28;20214;-61
2022/04/14 05:02:02;;;;;;;19.10;10.20;;;;;;;;;;5036089;28;20194;-60
2022/04/14 05:04:29;;;;;;;20.47;10.50;;;;;;;;;;5040001;28;20209;-61
2022/04/14 05:06:56;;;;;;;16.63;10.20;;;;;;;;;;5040588;28;20245;-60
2022/04/14 05:09:26;;;;;;;17.33;10.90;;;;;;;;;;5042230;28;20531;-60
2022/04/14 05:11:53;;;;;;;17.77;10.80;;;;;;;;;;5039257;28;20198;-60
2022/04/14 05:14:20;;;;;;;19.37;10.70;;;;;;;;;;5041526;28;20296;-60
2022/04/14 05:16:47;;;;;;;19.40;11.70;;;;;;;;;;5041101;28;20227;-60
2022/04/14 05:19:13;;;;;;;15.97;9.33;;;;;;;;;;5040188;28;20222;-60
2022/04/14 05:21:40;;;;;;;21.40;10.43;;;;;;;;;;5039686;28;20222;-61
2022/04/14 05:24:07;;;;;;;20.27;10.53;;;;;;;;;;5040014;28;20214;-60
2022/04/14 05:26:34;;;;;;;19.13;11.17;;;;;;;;;;5040971;28;20215;-60
2022/04/14 05:29:01;;;;;;;18.40;9.10;;;;;;;;;;5019168;28;20242;-60
2022/04/14 05:31:28;;;;;;;19.60;10.43;;;;;;;;;;5020184;28;20214;-61
2022/04/14 05:33:55;;;;;;;18.40;9.17;;;;;;;;;;5019620;28;20203;-62
2022/04/14 05:36:22;;;;;;;16.90;9.07;;;;;;;;;;5019716;28;20286;-62
2022/04/14 05:38:49;;;;;;;19.60;10.73;;;;;;;;;;5020780;28;20288;-62
2022/04/14 05:41:33;;;;;;;21.20;10.63;;;;;;;;;;5019355;28;20175;-62
2022/04/14 05:43:59;;;;;;;19.90;11.70;;;;;;;;;;5017627;28;20636;-66
2022/04/14 05:46:26;;;;;;;22.50;11.47;;;;;;;;;;5020388;28;20225;-66
2022/04/14 05:48:53;;;;;;;23.07;11.03;;;;;;;;;;5015346;28;20195;-65
2022/04/14 05:51:21;;;;;;;20.17;9.97;;;;;;;;;;5019774;28;20799;-66
2022/04/14 05:53:53;;;;;;;21.27;11.67;;;;;;;;;;5019502;28;20249;-66
2022/04/14 05:56:20;;;;;;;23.33;11.10;;;;;;;;;;5019009;28;20195;-66
2022/04/14 05:58:47;;;;;;;18.10;11.17;;;;;;;;;;5018927;28;20631;-67
2022/04/14 06:01:14;;;;;;;20.27;11.93;;;;;;;;;;5021260;28;20919;-66
2022/04/14 06:03:41;;;;;;;19.87;11.93;;;;;;;;;;5021399;28;20195;-66
2022/04/14 06:06:12;;;;;;;21.90;12.10;;;;;;;;;;5018142;28;20620;-65
2022/04/14 06:08:40;;;;;;;22.87;12.03;;;;;;;;;;5019437;28;20195;-66
2022/04/14 06:11:06;;;;;;;21.23;12.03;;;;;;;;;;5020293;28;20195;-65
2022/04/14 06:13:35;;;;;;;19.90;11.70;;;;;;;;;;5019074;28;20247;-66
2022/04/14 06:16:02;;;;;;;18.57;11.47;;;;;;;;;;5019393;28;20957;-66
2022/04/14 06:18:29;;;;;;;22.93;12.60;;;;;;;;;;5017103;28;20215;-65
2022/04/14 06:20:56;;;;;;;21.93;13.20;;;;;;;;;;5018935;28;20195;-65
2022/04/14 06:23:23;;;;;;;22.80;12.83;;;;;;;;;;5019358;28;20187;-66
2022/04/14 06:25:50;;;;;;;20.40;12.17;;;;;;;;;;5019556;28;20188;-67
2022/04/14 06:28:17;;;;;;;23.50;13.13;;;;;;;;;;5020899;28;20194;-66
2022/04/14 06:30:48;;;;;;;26.73;13.43;;;;;;;;;;5018101;28;20286;-65
2022/04/14 06:33:16;;;;;;;23.60;13.53;;;;;;;;;;5018333;28;20223;-66
2022/04/14 06:35:43;;;;;;;21.97;13.10;;;;;;;;;;5017547;28;20673;-65
2022/04/14 06:38:13;;;;;;;22.47;13.43;;;;;;;;;;5020211;28;20203;-65
2022/04/14 06:40:45;;;;;;;23.87;12.90;;;;;;;;;;5017713;28;20223;-65
2022/04/14 06:43:30;;;;;;;23.17;13.13;;;;;;;;;;5021771;28;20187;-67
2022/04/14 06:45:59;;;;;;;22.27;13.40;;;;;;;;;;5024123;28;20188;-68
2022/04/14 06:48:26;;;;;;;22.27;13.07;;;;;;;;;;5023967;28;20218;-65
2022/04/14 06:50:53;;;;;;;23.37;12.77;;;;;;;;;;5022949;28;20584;-66
2022/04/14 06:53:20;;;;;;;23.53;13.67;;;;;;;;;;5021910;28;20696;-66
2022/04/14 06:55:48;;;;;;;22.63;13.03;;;;;;;;;;5022797;28;20183;-66
2022/04/14 06:58:15;;;;;;;26.37;14.03;;;;;;;;;;5023356;28;20188;-65
2022/04/14 07:00:42;;;;;;;24.97;13.10;;;;;;;;;;5022458;28;20562;-66
2022/04/14 07:03:08;;;;;;;25.37;13.80;;;;;;;;;;5024273;28;20205;-65
2022/04/14 07:05:36;;;;;;;23.60;14.40;;;;;;;;;;5025128;28;20544;-66
2022/04/14 07:08:03;;;;;;;24.53;14.47;;;;;;;;;;5024525;28;20766;-64
2022/04/14 07:10:47;;;;;;;23.37;14.03;;;;;;;;;;5021282;28;20183;-64
2022/04/14 07:13:14;;;;;;;28.00;14.30;;;;;;;;;;5024039;28;20362;-63
2022/04/14 07:15:41;;;;;;;23.57;13.17;;;;;;;;;;5023693;28;20187;-66
2022/04/14 07:18:09;;;;;;;22.97;13.80;;;;;;;;;;5023507;28;20238;-65
2022/04/14 07:20:37;;;;;;;21.03;13.20;;;;;;;;;;5022003;28;20774;-64
2022/04/14 07:23:05;;;;;;;22.40;13.50;;;;;;;;;;5022583;28;20203;-64
2022/04/14 07:25:33;;;;;;;21.83;12.87;;;;;;;;;;5022969;28;20196;-65
2022/04/14 07:28:01;;;;;;;23.07;13.53;;;;;;;;;;5021999;28;20310;-65
2022/04/14 07:30:45;;;;;;;22.37;12.93;;;;;;;;;;5022400;28;21240;-66
2022/04/14 07:33:12;;;;;;;34.67;14.47;;;;;;;;;;5012254;28;20316;-65
2022/04/14 07:35:56;;;;;;;24.37;13.53;;;;;;;;;;5022384;28;20175;-63
2022/04/14 07:38:23;;;;;;;22.83;12.73;;;;;;;;;;5022054;28;20241;-65
2022/04/14 07:40:50;;;;;;;22.33;13.23;;;;;;;;;;5022848;28;20223;-66
2022/04/14 07:43:18;;;;;;;22.40;13.13;;;;;;;;;;5019626;28;20191;-65
2022/04/14 07:45:45;;;;;;;20.70;13.23;;;;;;;;;;5023633;28;20227;-66
2022/04/14 07:48:13;;;;;;;23.67;13.70;;;;;;;;;;5019684;28;20226;-66
2022/04/14 07:50:42;;;;;;;22.33;13.63;;;;;;;;;;5022705;28;20196;-67
2022/04/14 07:53:09;;;;;;;21.70;14.57;;;;;;;;;;5020127;28;20218;-66
2022/04/14 07:55:36;;;;;;;23.33;13.93;;;;;;;;;;5021724;28;20314;-63
2022/04/14 07:58:10;;;;;;;22.50;13.80;;;;;;;;;;5022522;28;20199;-64
2022/04/14 08:00:37;;;;;;;21.63;14.20;;;;;;;;;;5018924;28;20215;-64
2022/04/14 08:03:05;;;;;;;25.07;14.80;;;;;;;;;;5022029;28;20203;-65
2022/04/14 08:05:36;;;;;;;20.70;14.20;;;;;;;;;;5021638;28;20195;-65
2022/04/14 08:08:04;;;;;;;25.13;14.63;;;;;;;;;;5021406;28;20203;-64
2022/04/14 08:10:31;;;;;;;22.93;14.53;;;;;;;;;;5021535;28;20257;-65
2022/04/14 08:12:58;;;;;;;21.67;14.30;;;;;;;;;;5018354;28;20206;-64
2022/04/14 08:15:27;;;;;;;23.47;14.97;;;;;;;;;;5002879;28;20235;-65
2022/04/14 08:17:55;;;;;;;22.80;13.90;;;;;;;;;;5017323;28;20559;-66
2022/04/14 08:20:22;;;;;;;21.87;14.60;;;;;;;;;;5016208;28;20219;-65
2022/04/14 08:22:49;;;;;;;23.27;14.33;;;;;;;;;;5019504;28;21580;-64
2022/04/14 08:25:20;;;;;;;24.87;14.33;;;;;;;;;;5018199;28;20199;-66
2022/04/14 08:27:47;;;;;;;23.03;14.07;;;;;;;;;;5019745;28;20253;-65
2022/04/14 08:30:15;;;;;;;25.00;15.40;;;;;;;;;;5020137;28;20277;-65
2022/04/14 08:32:43;;;;;;;23.47;14.60;;;;;;;;;;5019570;28;20204;-64
2022/04/14 08:35:10;;;;;;;23.10;14.50;;;;;;;;;;5019954;28;20223;-66
2022/04/14 08:37:54;;;;;;;24.07;14.97;;;;;;;;;;5018669;28;20195;-65
2022/04/14 08:40:22;;;;;;;24.33;14.87;;;;;;;;;;5019093;28;20261;-65
2022/04/14 08:43:07;;;;;;;25.83;14.87;;;;;;;;;;5020193;28;20685;-65
2022/04/14 08:45:35;;;;;;;21.77;13.70;;;;;;;;;;5021103;28;20195;-64
2022/04/14 08:48:03;;;;;;;27.17;14.73;;;;;;;;;;5020396;28;20234;-64
2022/04/14 08:50:30;;;;;;;22.60;14.37;;;;;;;;;;5021591;28;20253;-65
2022/04/14 08:52:58;;;;;;;23.03;14.50;;;;;;;;;;5017770;28;20206;-65
2022/04/14 08:55:26;;;;;;;24.90;14.70;;;;;;;;;;5019465;28;20188;-66
2022/04/14 08:57:53;;;;;;;26.23;15.23;;;;;;;;;;5021582;28;20199;-64
2022/04/14 09:00:20;;;;;;;22.80;15.23;;;;;;;;;;5020006;28;20209;-65
2022/04/14 09:03:04;;;;;;;25.43;15.50;;;;;;;;;;5021978;28;20175;-65
2022/04/14 09:05:32;;;;;;;22.40;14.97;;;;;;;;;;5020602;28;20192;-67
2022/04/14 09:07:59;;;;;;;24.50;14.97;;;;;;;;;;5022588;28;20191;-66
2022/04/14 09:10:27;;;;;;;25.83;15.83;;;;;;;;;;5021988;28;20198;-67
2022/04/14 09:12:53;;;;;;;25.90;15.50;;;;;;;;;;5019556;28;20196;-66
2022/04/14 09:15:20;;;;;;;25.23;15.73;;;;;;;;;;5013727;28;20247;-66
2022/04/14 09:17:54;;;;;;;23.37;14.93;;;;;;;;;;5022542;28;20199;-67
2022/04/14 09:20:26;;;;;;;25.30;15.50;;;;;;;;;;5021919;28;20278;-67
2022/04/14 09:23:12;;;;;;;24.23;16.23;;;;;;;;;;5021163;28;20214;-66
2022/04/14 09:25:39;;;;;;;23.97;15.13;;;;;;;;;;5020201;28;20203;-66
2022/04/14 09:28:09;;;;;;;25.00;16.00;;;;;;;;;;5022564;28;20222;-66
2022/04/14 09:30:36;;;;;;;25.03;16.00;;;;;;;;;;5020930;28;20196;-66
2022/04/14 09:33:03;;;;;;;24.63;14.87;;;;;;;;;;5021901;28;20219;-65
2022/04/14 09:36:03;;;;;;;25.03;15.97;;;;;;;;;;5021128;28;20222;-68
2022/04/14 09:38:39;;;;;;;24.17;15.90;;;;;;;;;;5022469;28;20198;-66
2022/04/14 09:41:07;;;;;;;23.03;16.00;;;;;;;;;;5020132;28;20336;-67
2022/04/14 09:43:34;;;;;;;26.53;16.10;;;;;;;;;;5019598;28;20203;-66
2022/04/14 09:46:00;;;;;;;24.90;15.83;;;;;;;;;;5019227;28;20214;-66
2022/04/14 09:48:29;;;;;;;25.70;15.60;;;;;;;;;;5021184;28;20183;-67
2022/04/14 09:51:24;;;;;;;26.93;16.33;;;;;;;;;;5020626;28;20183;-66
2022/04/14 09:54:14;;;;;;;23.00;15.93;;;;;;;;;;5020402;28;20658;-68
2022/04/14 09:56:42;;;;;;;25.37;15.80;;;;;;;;;;5021156;28;20195;-67
2022/04/14 09:59:08;;;;;;;25.27;16.40;;;;;;;;;;5016398;28;20195;-66
2022/04/14 10:01:35;;;;;;;25.20;15.60;;;;;;;;;;5021423;28;20207;-67
2022/04/14 10:04:03;;;;;;;24.67;16.33;;;;;;;;;;5021632;28;20647;-66
2022/04/14 10:06:31;;;;;;;24.63;15.83;;;;;;;;;;5021072;28;20198;-65
2022/04/14 10:08:57;;;;;;;24.20;16.40;;;;;;;;;;5018111;28;20234;-65
2022/04/14 10:11:25;;;;;;;23.97;15.87;;;;;;;;;;5019769;28;20200;-66
2022/04/14 10:13:52;;;;;;;24.30;16.50;;;;;;;;;;5019272;28;20222;-66
2022/04/14 10:16:21;;;;;;;24.17;15.70;;;;;;;;;;5006415;28;20231;-65
2022/04/14 10:18:48;;;;;;;26.83;15.40;;;;;;;;;;5024135;28;20176;-65
2022/04/14 10:21:15;;;;;;;28.53;16.87;;;;;;;;;;5023869;28;20856;-66
2022/04/14 10:23:42;;;;;;;26.67;16.33;;;;;;;;;;5025171;28;20179;-64
2022/04/14 10:26:09;;;;;;;26.07;15.87;;;;;;;;;;5012970;28;20249;-64
2022/04/14 10:28:35;;;;;;;26.27;16.20;;;;;;;;;;5012419;28;20246;-64
2022/04/14 10:31:02;;;;;;;27.60;17.23;;;;;;;;;;5024675;28;20195;-64
2022/04/14 10:33:29;;;;;;;27.40;16.77;;;;;;;;;;5031656;28;20187;-64
2022/04/14 10:35:56;;;;;;;25.80;16.53;;;;;;;;;;5015641;28;20289;-65
2022/04/14 10:38:35;;;;;;;26.83;16.13;;;;;;;;;;5030382;28;20241;-65
2022/04/14 10:41:04;;;;;;;29.23;16.70;;;;;;;;;;5013541;28;20212;-65
2022/04/14 10:43:34;;;;;;;25.90;17.07;;;;;;;;;;5012162;28;20283;-64
2022/04/14 10:46:01;;;;;;;23.47;15.17;;;;;;;;;;5011526;28;20292;-64
2022/04/14 10:48:32;;;;;;;24.97;17.07;;;;;;;;;;5010496;28;20200;-64
2022/04/14 10:51:08;;;;;;;28.33;16.67;;;;;;;;;;5010987;28;20184;-65
2022/04/14 10:53:46;;;;;;;24.77;15.53;;;;;;;;;;5010647;28;20745;-64
2022/04/14 10:56:33;;;;;;;24.60;15.63;;;;;;;;;;5013644;28;20195;-65
2022/04/14 10:59:18;;;;;;;27.03;16.30;;;;;;;;;;5025340;28;20171;-65
2022/04/14 11:01:48;;;;;;;24.00;15.57;;;;;;;;;;5029064;28;20293;-65
2022/04/14 11:04:34;;;;;;;25.40;15.60;;;;;;;;;;5011520;28;20212;-65
2022/04/14 11:07:08;;;;;;;23.87;15.63;;;;;;;;;;5010924;28;20302;-66
2022/04/14 11:09:50;;;;;;;25.67;14.90;;;;;;;;;;5023791;28;20184;-66
2022/04/14 11:12:23;;;;;;;24.13;14.63;;;;;;;;;;5026168;28;20203;-66
2022/04/14 11:15:08;;;;;;;23.10;14.20;;;;;;;;;;5016706;28;20227;-66
2022/04/14 11:17:40;;;;;;;20.47;14.00;;;;;;;;;;5026424;28;20184;-67
2022/04/14 11:20:17;;;;;;;25.03;14.03;;;;;;;;;;5027062;28;20310;-65
2022/04/14 11:23:02;;;;;;;26.27;14.67;;;;;;;;;;5027704;28;20191;-65
2022/04/14 11:25:44;;;;;;;22.47;13.50;;;;;;;;;;5018704;28;20191;-67
2022/04/14 11:28:30;;;;;;;21.53;13.57;;;;;;;;;;5017947;28;20227;-65
2022/04/14 11:30:58;;;;;;;22.30;12.70;;;;;;;;;;5022270;28;20865;-67
2022/04/14 11:33:31;;;;;;;21.00;13.20;;;;;;;;;;5021659;28;21233;-68
2022/04/14 11:36:13;;;;;;;21.80;13.20;;;;;;;;;;5021919;28;20231;-67
2022/04/14 11:38:55;;;;;;;24.23;13.90;;;;;;;;;;5022617;28;20214;-68
2022/04/14 11:41:39;;;;;;;19.57;12.97;;;;;;;;;;5029288;28;20203;-67
2022/04/14 11:44:06;;;;;;;34.37;13.67;;;;;;;;;;5027320;28;20206;-68
2022/04/14 11:46:34;;;;;;;18.47;11.27;;;;;;;;;;5029862;28;20188;-67
2022/04/14 11:49:02;;;;;;;23.17;11.23;;;;;;;;;;5025408;28;20190;-68
2022/04/14 11:51:29;;;;;;;38.63;13.17;;;;;;;;;;5024245;28;20230;-67
2022/04/14 11:53:56;;;;;;;41.07;13.13;;;;;;;;;;5029737;28;20180;-68
2022/04/14 11:56:39;;;;;;;19.77;11.23;;;;;;;;;;5029417;28;20191;-67
2022/04/14 11:59:08;;;;;;;17.03;9.87;;;;;;;;;;5028851;28;20221;-67
2022/04/14 12:01:36;;;;;;;17.23;9.90;;;;;;;;;;5030335;28;20290;-67
2022/04/14 12:04:06;;;;;;;12.97;8.33;;;;;;;;;;5029625;28;20250;-67
2022/04/14 12:06:51;;;;;;;14.00;8.70;;;;;;;;;;5029370;28;20175;-67
2022/04/14 12:09:19;;;;;;;15.87;10.30;;;;;;;;;;5028707;28;20589;-67
2022/04/14 12:11:46;;;;;;;20.20;10.83;;;;;;;;;;5024955;28;20192;-68
2022/04/14 12:14:14;;;;;;;17.33;9.90;;;;;;;;;;5025595;28;20247;-67
2022/04/14 12:16:48;;;;;;;16.57;9.77;;;;;;;;;;5025314;28;20203;-69
2022/04/14 12:19:15;;;;;;;19.53;10.03;;;;;;;;;;5022465;28;20535;-68
2022/04/14 12:21:42;;;;;;;22.33;10.00;;;;;;;;;;5023491;28;20357;-68
2022/04/14 12:24:08;;;;;;;14.33;9.40;;;;;;;;;;5008760;28;20674;-69
2022/04/14 12:26:37;;;;;;;14.37;9.07;;;;;;;;;;5009428;28;20251;-67
2022/04/14 12:29:08;;;;;;;12.63;8.73;;;;;;;;;;5018659;28;20289;-65
2022/04/14 12:32:09;;;;;;;14.50;8.43;;;;;;;;;;5018716;28;20754;-66
2022/04/14 12:34:40;;;;;;;11.47;8.00;;;;;;;;;;5022239;28;20199;-66
2022/04/14 12:37:18;;;;;;;32.20;9.07;;;;;;;;;;5021808;28;20195;-70
2022/04/14 12:39:52;;;;;;;33.47;24.37;;;;;;;;;;5019408;28;20200;-67
2022/04/14 12:42:19;;;;;;;30.37;17.33;;;;;;;;;;5019471;28;20295;-66
2022/04/14 12:44:46;;;;;;;22.10;13.80;;;;;;;;;;5016549;28;20721;-67
2022/04/14 12:47:13;;;;;;;14.40;8.87;;;;;;;;;;5010978;28;20203;-65
2022/04/14 12:49:40;;;;;;;15.33;8.90;;;;;;;;;;5019714;28;20207;-65
2022/04/14 12:52:07;;;;;;;17.17;9.03;;;;;;;;;;5018003;28;21009;-66
2022/04/14 12:54:44;;;;;;;103.80;11.63;;;;;;;;;;5025278;28;20261;-64
2022/04/14 12:57:10;;;;;;;18.43;7.53;;;;;;;;;;5025647;28;20195;-65
2022/04/14 12:59:38;;;;;;;20.90;9.83;;;;;;;;;;5023526;28;20209;-65
2022/04/14 13:02:08;;;;;;;15.20;8.20;;;;;;;;;;5007412;28;20218;-65
2022/04/14 13:04:36;;;;;;;22.10;10.27;;;;;;;;;;5023691;28;20203;-65
2022/04/14 13:07:06;;;;;;;17.00;8.93;;;;;;;;;;5011815;28;20220;-65
2022/04/14 13:09:34;;;;;;;17.53;9.07;;;;;;;;;;5026387;28;20199;-65
2022/04/14 13:12:01;;;;;;;16.03;8.27;;;;;;;;;;5025573;28;20202;-66
2022/04/14 13:14:29;;;;;;;15.97;7.10;;;;;;;;;;5009023;28;20729;-67
2022/04/14 13:17:15;;;;;;;83.07;15.87;;;;;;;;;;5010467;28;20263;-68
2022/04/14 13:19:42;;;;;;;35.40;16.03;;;;;;;;;;5021751;28;20188;-66
2022/04/14 13:22:09;;;;;;;107.67;51.27;;;;;;;;;;5023967;28;20225;-65
2022/04/14 13:24:39;;;;;;;27.30;13.63;;;;;;;;;;5022606;28;20191;-67
2022/04/14 13:27:05;;;;;;;17.73;8.90;;;;;;;;;;5019806;28;20203;-67
2022/04/14 13:29:32;;;;;;;12.20;6.70;;;;;;;;;;5021118;28;20202;-68
2022/04/14 13:31:59;;;;;;;16.33;7.70;;;;;;;;;;5009477;28;21107;-66
2022/04/14 13:34:26;;;;;;;12.43;6.30;;;;;;;;;;5018882;28;20196;-67
2022/04/14 13:36:58;;;;;;;13.87;6.40;;;;;;;;;;5019899;28;20267;-65
2022/04/14 13:39:25;;;;;;;11.10;6.20;;;;;;;;;;5018454;28;20187;-66
2022/04/14 13:42:11;;;;;;;14.00;7.13;;;;;;;;;;5020855;28;20294;-66
2022/04/14 13:44:38;;;;;;;7.20;4.60;;;;;;;;;;5008183;28;20191;-66
2022/04/14 13:47:05;;;;;;;13.40;7.97;;;;;;;;;;5007142;28;20218;-66
2022/04/14 13:49:31;;;;;;;8.93;6.33;;;;;;;;;;5009153;28;20223;-66
2022/04/14 13:52:00;;;;;;;11.50;5.67;;;;;;;;;;5007479;28;20188;-66
2022/04/14 13:54:27;;;;;;;38.50;5.97;;;;;;;;;;5021573;28;20210;-66
2022/04/14 13:56:55;;;;;;;36.27;6.43;;;;;;;;;;5028025;28;20196;-66
2022/04/14 13:59:21;;;;;;;8.07;4.37;;;;;;;;;;5027646;28;20223;-65
2022/04/14 14:01:48;;;;;;;9.57;5.07;;;;;;;;;;5026635;28;20229;-66
2022/04/14 14:04:15;;;;;;;5.90;4.20;;;;;;;;;;5027409;28;20516;-66
2022/04/14 14:06:42;;;;;;;13.47;9.87;;;;;;;;;;5027481;28;20187;-67
2022/04/14 14:09:09;;;;;;;7.57;4.90;;;;;;;;;;5010284;28;20539;-66
2022/04/14 14:11:37;;;;;;;7.53;4.63;;;;;;;;;;5008649;28;20551;-66
2022/04/14 14:14:04;;;;;;;7.33;5.63;;;;;;;;;;5007515;28;20631;-65
2022/04/14 14:16:33;;;;;;;8.63;5.67;;;;;;;;;;5008582;28;20933;-66
2022/04/14 14:19:00;;;;;;;9.43;5.83;;;;;;;;;;5027212;28;20278;-66
2022/04/14 14:21:26;;;;;;;26.87;6.67;;;;;;;;;;5013919;28;20208;-66
2022/04/14 14:23:53;;;;;;;24.00;6.70;;;;;;;;;;5007960;28;20224;-66
2022/04/14 14:26:20;;;;;;;15.20;6.53;;;;;;;;;;5014887;28;20326;-66
2022/04/14 14:28:47;;;;;;;18.50;5.90;;;;;;;;;;5007318;28;20208;-66
2022/04/14 14:31:14;;;;;;;14.17;6.13;;;;;;;;;;5008304;28;20258;-66
2022/04/14 14:33:41;;;;;;;16.73;6.10;;;;;;;;;;5006588;28;20197;-66
2022/04/14 14:36:09;;;;;;;17.43;6.20;;;;;;;;;;5021615;28;20219;-66